sensor_id;sensor_type;location;lat;lon;timestamp;P1;durP1;ratioP1;P2;durP2;ratioP2
42514;SDS011;28144;49.920;18.730;2023-07-02T00:01:47;20.27;;;12.43;;
42514;SDS011;28144;49.920;18.730;2023-07-02T00:04:13;15.75;;;12.25;;
42514;SDS011;28144;49.920;18.730;2023-07-02T00:06:42;16.52;;;12.02;;
42514;SDS011;28144;49.920;18.730;2023-07-02T00:09:11;16.70;;;12.15;;
42514;SDS011;28144;49.920;18.730;2023-07-02T00:11:38;20.13;;;11.63;;
42514;SDS011;28144;49.920;18.730;2023-07-02T00:14:04;19.23;;;12.45;;
42514;SDS011;28144;49.920;18.730;2023-07-02T00:16:30;16.35;;;11.77;;
42514;SDS011;28144;49.920;18.730;2023-07-02T00:18:56;17.35;;;11.45;;
42514;SDS011;28144;49.920;18.730;2023-07-02T00:21:22;17.73;;;11.90;;
42514;SDS011;28144;49.920;18.730;2023-07-02T00:23:48;17.60;;;10.88;;
42514;SDS011;28144;49.920;18.730;2023-07-02T00:26:13;16.87;;;11.47;;
42514;SDS011;28144;49.920;18.730;2023-07-02T00:28:39;16.13;;;11.45;;
42514;SDS011;28144;49.920;18.730;2023-07-02T00:31:05;15.63;;;12.07;;
42514;SDS011;28144;49.920;18.730;2023-07-02T00:33:31;20.70;;;13.18;;
42514;SDS011;28144;49.920;18.730;2023-07-02T00:35:57;14.95;;;11.93;;
42514;SDS011;28144;49.920;18.730;2023-07-02T00:38:23;21.38;;;11.85;;
42514;SDS011;28144;49.920;18.730;2023-07-02T00:40:48;22.60;;;12.80;;
42514;SDS011;28144;49.920;18.730;2023-07-02T00:43:14;17.90;;;11.82;;
42514;SDS011;28144;49.920;18.730;2023-07-02T00:45:40;15.87;;;11.10;;
42514;SDS011;28144;49.920;18.730;2023-07-02T00:48:06;23.92;;;12.48;;
42514;SDS011;28144;49.920;18.730;2023-07-02T00:50:32;20.13;;;11.02;;
42514;SDS011;28144;49.920;18.730;2023-07-02T00:52:58;20.65;;;11.80;;
42514;SDS011;28144;49.920;18.730;2023-07-02T00:55:24;32.72;;;12.35;;
42514;SDS011;28144;49.920;18.730;2023-07-02T00:57:50;20.77;;;11.00;;
42514;SDS011;28144;49.920;18.730;2023-07-02T01:00:16;22.83;;;11.13;;
42514;SDS011;28144;49.920;18.730;2023-07-02T01:02:42;19.80;;;12.05;;
42514;SDS011;28144;49.920;18.730;2023-07-02T01:05:17;23.02;;;11.35;;
42514;SDS011;28144;49.920;18.730;2023-07-02T01:07:47;20.38;;;10.85;;
42514;SDS011;28144;49.920;18.730;2023-07-02T01:10:12;20.13;;;10.63;;
42514;SDS011;28144;49.920;18.730;2023-07-02T01:12:38;18.38;;;10.82;;
42514;SDS011;28144;49.920;18.730;2023-07-02T01:15:04;18.05;;;9.85;;
42514;SDS011;28144;49.920;18.730;2023-07-02T01:17:31;20.17;;;10.75;;
42514;SDS011;28144;49.920;18.730;2023-07-02T01:22:34;19.65;;;10.23;;
42514;SDS011;28144;49.920;18.730;2023-07-02T01:25:00;19.90;;;10.38;;
42514;SDS011;28144;49.920;18.730;2023-07-02T01:27:29;23.70;;;10.40;;
42514;SDS011;28144;49.920;18.730;2023-07-02T01:29:55;25.15;;;9.68;;
42514;SDS011;28144;49.920;18.730;2023-07-02T01:32:21;22.27;;;9.80;;
42514;SDS011;28144;49.920;18.730;2023-07-02T01:34:48;21.95;;;10.27;;
42514;SDS011;28144;49.920;18.730;2023-07-02T01:37:14;22.20;;;10.75;;
42514;SDS011;28144;49.920;18.730;2023-07-02T01:39:42;21.65;;;10.68;;
42514;SDS011;28144;49.920;18.730;2023-07-02T01:44:37;19.75;;;9.55;;
42514;SDS011;28144;49.920;18.730;2023-07-02T01:47:04;25.92;;;10.13;;
42514;SDS011;28144;49.920;18.730;2023-07-02T01:49:30;31.50;;;10.75;;
42514;SDS011;28144;49.920;18.730;2023-07-02T01:51:56;29.83;;;10.18;;
42514;SDS011;28144;49.920;18.730;2023-07-02T01:54:22;26.98;;;10.10;;
42514;SDS011;28144;49.920;18.730;2023-07-02T01:56:49;19.27;;;10.23;;
42514;SDS011;28144;49.920;18.730;2023-07-02T01:59:15;25.80;;;11.15;;
42514;SDS011;28144;49.920;18.730;2023-07-02T02:01:42;25.25;;;10.10;;
42514;SDS011;28144;49.920;18.730;2023-07-02T02:04:08;26.77;;;10.18;;
42514;SDS011;28144;49.920;18.730;2023-07-02T02:11:26;21.98;;;9.68;;
42514;SDS011;28144;49.920;18.730;2023-07-02T02:13:51;23.17;;;10.23;;
42514;SDS011;28144;49.920;18.730;2023-07-02T02:16:17;14.98;;;9.55;;
42514;SDS011;28144;49.920;18.730;2023-07-02T02:18:43;23.20;;;10.80;;
42514;SDS011;28144;49.920;18.730;2023-07-02T02:21:09;17.77;;;10.63;;
42514;SDS011;28144;49.920;18.730;2023-07-02T02:23:34;20.40;;;9.23;;
42514;SDS011;28144;49.920;18.730;2023-07-02T02:26:00;26.90;;;9.77;;
42514;SDS011;28144;49.920;18.730;2023-07-02T02:28:26;31.30;;;10.03;;
42514;SDS011;28144;49.920;18.730;2023-07-02T02:30:52;20.08;;;8.57;;
42514;SDS011;28144;49.920;18.730;2023-07-02T02:33:18;15.57;;;9.07;;
42514;SDS011;28144;49.920;18.730;2023-07-02T02:35:43;23.55;;;9.88;;
42514;SDS011;28144;49.920;18.730;2023-07-02T02:38:10;24.58;;;9.75;;
42514;SDS011;28144;49.920;18.730;2023-07-02T02:40:36;14.85;;;7.82;;
42514;SDS011;28144;49.920;18.730;2023-07-02T02:43:02;17.53;;;9.60;;
42514;SDS011;28144;49.920;18.730;2023-07-02T02:45:28;15.32;;;9.13;;
42514;SDS011;28144;49.920;18.730;2023-07-02T02:47:54;17.38;;;9.65;;
42514;SDS011;28144;49.920;18.730;2023-07-02T02:50:20;14.65;;;9.15;;
42514;SDS011;28144;49.920;18.730;2023-07-02T02:52:46;16.08;;;9.07;;
42514;SDS011;28144;49.920;18.730;2023-07-02T02:55:12;17.58;;;9.20;;
42514;SDS011;28144;49.920;18.730;2023-07-02T02:57:38;23.65;;;9.20;;
42514;SDS011;28144;49.920;18.730;2023-07-02T03:00:04;17.33;;;9.27;;
42514;SDS011;28144;49.920;18.730;2023-07-02T03:02:30;14.77;;;8.65;;
42514;SDS011;28144;49.920;18.730;2023-07-02T03:04:56;18.98;;;9.10;;
42514;SDS011;28144;49.920;18.730;2023-07-02T03:07:22;16.80;;;7.93;;
42514;SDS011;28144;49.920;18.730;2023-07-02T03:09:49;17.00;;;8.23;;
42514;SDS011;28144;49.920;18.730;2023-07-02T03:12:14;17.73;;;9.03;;
42514;SDS011;28144;49.920;18.730;2023-07-02T03:14:40;14.77;;;9.07;;
42514;SDS011;28144;49.920;18.730;2023-07-02T03:17:05;15.03;;;8.80;;
42514;SDS011;28144;49.920;18.730;2023-07-02T03:19:31;17.80;;;7.90;;
42514;SDS011;28144;49.920;18.730;2023-07-02T03:21:57;11.60;;;7.87;;
42514;SDS011;28144;49.920;18.730;2023-07-02T03:24:23;19.50;;;8.25;;
42514;SDS011;28144;49.920;18.730;2023-07-02T03:26:48;13.50;;;7.47;;
42514;SDS011;28144;49.920;18.730;2023-07-02T03:29:14;13.80;;;8.15;;
42514;SDS011;28144;49.920;18.730;2023-07-02T03:31:41;18.58;;;7.85;;
42514;SDS011;28144;49.920;18.730;2023-07-02T03:34:08;19.27;;;7.80;;
42514;SDS011;28144;49.920;18.730;2023-07-02T03:36:34;18.02;;;7.60;;
42514;SDS011;28144;49.920;18.730;2023-07-02T03:39:01;11.88;;;6.93;;
42514;SDS011;28144;49.920;18.730;2023-07-02T03:41:27;15.10;;;7.18;;
42514;SDS011;28144;49.920;18.730;2023-07-02T03:43:54;13.35;;;7.32;;
42514;SDS011;28144;49.920;18.730;2023-07-02T03:46:19;15.95;;;7.25;;
42514;SDS011;28144;49.920;18.730;2023-07-02T03:48:45;11.48;;;7.10;;
42514;SDS011;28144;49.920;18.730;2023-07-02T03:51:11;13.25;;;6.85;;
42514;SDS011;28144;49.920;18.730;2023-07-02T03:53:43;14.10;;;6.82;;
42514;SDS011;28144;49.920;18.730;2023-07-02T03:56:08;17.17;;;7.43;;
42514;SDS011;28144;49.920;18.730;2023-07-02T03:58:34;15.13;;;6.65;;
42514;SDS011;28144;49.920;18.730;2023-07-02T04:01:00;12.90;;;7.20;;
42514;SDS011;28144;49.920;18.730;2023-07-02T04:03:26;17.38;;;7.10;;
42514;SDS011;28144;49.920;18.730;2023-07-02T04:05:52;16.53;;;7.17;;
42514;SDS011;28144;49.920;18.730;2023-07-02T04:08:18;17.15;;;6.53;;
42514;SDS011;28144;49.920;18.730;2023-07-02T04:10:46;15.68;;;7.00;;
42514;SDS011;28144;49.920;18.730;2023-07-02T04:13:12;18.27;;;6.45;;
42514;SDS011;28144;49.920;18.730;2023-07-02T04:15:37;15.93;;;6.55;;
42514;SDS011;28144;49.920;18.730;2023-07-02T04:18:03;10.52;;;6.25;;
42514;SDS011;28144;49.920;18.730;2023-07-02T04:20:29;15.43;;;5.82;;
42514;SDS011;28144;49.920;18.730;2023-07-02T04:22:55;11.93;;;6.07;;
42514;SDS011;28144;49.920;18.730;2023-07-02T04:25:21;9.20;;;6.28;;
42514;SDS011;28144;49.920;18.730;2023-07-02T04:27:47;13.77;;;6.38;;
42514;SDS011;28144;49.920;18.730;2023-07-02T04:30:13;11.55;;;6.13;;
42514;SDS011;28144;49.920;18.730;2023-07-02T04:32:39;16.00;;;5.90;;
42514;SDS011;28144;49.920;18.730;2023-07-02T04:35:05;12.05;;;5.32;;
42514;SDS011;28144;49.920;18.730;2023-07-02T04:37:32;9.52;;;5.43;;
42514;SDS011;28144;49.920;18.730;2023-07-02T04:39:57;7.72;;;4.90;;
42514;SDS011;28144;49.920;18.730;2023-07-02T04:42:23;12.85;;;5.68;;
42514;SDS011;28144;49.920;18.730;2023-07-02T04:44:55;6.75;;;5.07;;
42514;SDS011;28144;49.920;18.730;2023-07-02T04:47:21;9.25;;;5.38;;
42514;SDS011;28144;49.920;18.730;2023-07-02T04:49:47;12.73;;;5.35;;
42514;SDS011;28144;49.920;18.730;2023-07-02T04:52:13;8.32;;;4.90;;
42514;SDS011;28144;49.920;18.730;2023-07-02T04:54:38;9.48;;;5.53;;
42514;SDS011;28144;49.920;18.730;2023-07-02T04:57:04;11.20;;;5.43;;
42514;SDS011;28144;49.920;18.730;2023-07-02T04:59:30;7.60;;;4.87;;
42514;SDS011;28144;49.920;18.730;2023-07-02T05:01:56;8.75;;;5.28;;
42514;SDS011;28144;49.920;18.730;2023-07-02T05:04:21;6.38;;;4.80;;
42514;SDS011;28144;49.920;18.730;2023-07-02T05:06:47;7.72;;;4.13;;
42514;SDS011;28144;49.920;18.730;2023-07-02T05:09:13;10.57;;;5.07;;
42514;SDS011;28144;49.920;18.730;2023-07-02T05:11:38;14.70;;;4.90;;
42514;SDS011;28144;49.920;18.730;2023-07-02T05:14:04;10.17;;;5.73;;
42514;SDS011;28144;49.920;18.730;2023-07-02T05:16:30;9.85;;;4.90;;
42514;SDS011;28144;49.920;18.730;2023-07-02T05:18:55;8.30;;;4.73;;
42514;SDS011;28144;49.920;18.730;2023-07-02T05:21:21;8.63;;;4.60;;
42514;SDS011;28144;49.920;18.730;2023-07-02T05:23:47;8.68;;;4.40;;
42514;SDS011;28144;49.920;18.730;2023-07-02T05:31:05;8.15;;;4.32;;
42514;SDS011;28144;49.920;18.730;2023-07-02T05:33:30;9.23;;;4.60;;
42514;SDS011;28144;49.920;18.730;2023-07-02T05:35:59;7.95;;;3.97;;
42514;SDS011;28144;49.920;18.730;2023-07-02T05:38:25;7.20;;;3.92;;
42514;SDS011;28144;49.920;18.730;2023-07-02T05:40:51;6.53;;;4.65;;
42514;SDS011;28144;49.920;18.730;2023-07-02T05:43:17;5.85;;;4.70;;
42514;SDS011;28144;49.920;18.730;2023-07-02T05:45:43;10.38;;;4.22;;
42514;SDS011;28144;49.920;18.730;2023-07-02T05:48:08;18.42;;;4.65;;
42514;SDS011;28144;49.920;18.730;2023-07-02T05:50:34;10.90;;;4.13;;
42514;SDS011;28144;49.920;18.730;2023-07-02T05:53:00;7.28;;;4.28;;
42514;SDS011;28144;49.920;18.730;2023-07-02T05:55:25;9.82;;;4.18;;
42514;SDS011;28144;49.920;18.730;2023-07-02T05:57:51;6.50;;;4.32;;
42514;SDS011;28144;49.920;18.730;2023-07-02T06:00:17;5.85;;;3.78;;
42514;SDS011;28144;49.920;18.730;2023-07-02T06:02:42;10.50;;;4.00;;
42514;SDS011;28144;49.920;18.730;2023-07-02T06:05:11;7.85;;;3.80;;
42514;SDS011;28144;49.920;18.730;2023-07-02T06:07:36;14.68;;;3.83;;
42514;SDS011;28144;49.920;18.730;2023-07-02T06:10:02;8.23;;;3.75;;
42514;SDS011;28144;49.920;18.730;2023-07-02T06:12:28;7.63;;;3.35;;
42514;SDS011;28144;49.920;18.730;2023-07-02T06:14:54;6.28;;;3.45;;
42514;SDS011;28144;49.920;18.730;2023-07-02T06:17:19;6.33;;;3.87;;
42514;SDS011;28144;49.920;18.730;2023-07-02T06:19:47;7.47;;;4.07;;
42514;SDS011;28144;49.920;18.730;2023-07-02T06:22:12;8.38;;;3.83;;
42514;SDS011;28144;49.920;18.730;2023-07-02T06:24:38;8.35;;;4.00;;
42514;SDS011;28144;49.920;18.730;2023-07-02T06:27:04;8.10;;;3.92;;
42514;SDS011;28144;49.920;18.730;2023-07-02T06:29:30;9.05;;;4.10;;
42514;SDS011;28144;49.920;18.730;2023-07-02T06:31:55;11.02;;;3.70;;
42514;SDS011;28144;49.920;18.730;2023-07-02T06:34:21;16.10;;;3.35;;
42514;SDS011;28144;49.920;18.730;2023-07-02T06:36:47;10.50;;;3.72;;
42514;SDS011;28144;49.920;18.730;2023-07-02T06:39:13;6.53;;;3.47;;
42514;SDS011;28144;49.920;18.730;2023-07-02T06:41:39;8.60;;;4.18;;
42514;SDS011;28144;49.920;18.730;2023-07-02T06:44:05;8.88;;;4.20;;
42514;SDS011;28144;49.920;18.730;2023-07-02T06:46:31;10.80;;;3.78;;
42514;SDS011;28144;49.920;18.730;2023-07-02T06:48:57;11.20;;;4.55;;
42514;SDS011;28144;49.920;18.730;2023-07-02T06:51:23;6.95;;;4.57;;
42514;SDS011;28144;49.920;18.730;2023-07-02T06:53:51;13.77;;;4.57;;
42514;SDS011;28144;49.920;18.730;2023-07-02T06:56:17;9.43;;;4.20;;
42514;SDS011;28144;49.920;18.730;2023-07-02T06:58:43;10.93;;;4.60;;
42514;SDS011;28144;49.920;18.730;2023-07-02T07:01:08;5.32;;;4.15;;
42514;SDS011;28144;49.920;18.730;2023-07-02T07:03:35;7.80;;;4.50;;
42514;SDS011;28144;49.920;18.730;2023-07-02T07:06:01;9.30;;;5.03;;
42514;SDS011;28144;49.920;18.730;2023-07-02T07:08:27;8.85;;;5.10;;
42514;SDS011;28144;49.920;18.730;2023-07-02T07:10:52;9.17;;;5.27;;
42514;SDS011;28144;49.920;18.730;2023-07-02T07:13:18;11.15;;;5.25;;
42514;SDS011;28144;49.920;18.730;2023-07-02T07:15:44;8.82;;;5.05;;
42514;SDS011;28144;49.920;18.730;2023-07-02T07:18:10;7.72;;;5.00;;
42514;SDS011;28144;49.920;18.730;2023-07-02T07:20:36;15.80;;;6.05;;
42514;SDS011;28144;49.920;18.730;2023-07-02T07:27:53;16.20;;;5.60;;
42514;SDS011;28144;49.920;18.730;2023-07-02T07:30:19;10.50;;;5.40;;
42514;SDS011;28144;49.920;18.730;2023-07-02T07:32:49;9.27;;;4.75;;
42514;SDS011;28144;49.920;18.730;2023-07-02T07:35:18;9.68;;;3.92;;
42514;SDS011;28144;49.920;18.730;2023-07-02T07:37:47;7.50;;;3.50;;
42514;SDS011;28144;49.920;18.730;2023-07-02T07:40:13;5.43;;;3.45;;
42514;SDS011;28144;49.920;18.730;2023-07-02T07:47:31;5.53;;;2.80;;
42514;SDS011;28144;49.920;18.730;2023-07-02T07:49:56;3.50;;;2.85;;
42514;SDS011;28144;49.920;18.730;2023-07-02T07:52:23;9.00;;;3.50;;
42514;SDS011;28144;49.920;18.730;2023-07-02T07:54:48;11.10;;;3.50;;
42514;SDS011;28144;49.920;18.730;2023-07-02T07:57:14;7.00;;;3.45;;
42514;SDS011;28144;49.920;18.730;2023-07-02T07:59:40;5.83;;;3.20;;
42514;SDS011;28144;49.920;18.730;2023-07-02T08:02:06;5.90;;;3.67;;
42514;SDS011;28144;49.920;18.730;2023-07-02T08:04:31;6.68;;;3.08;;
42514;SDS011;28144;49.920;18.730;2023-07-02T08:06:57;7.40;;;2.80;;
42514;SDS011;28144;49.920;18.730;2023-07-02T08:09:23;8.60;;;3.30;;
42514;SDS011;28144;49.920;18.730;2023-07-02T08:11:50;7.20;;;2.65;;
42514;SDS011;28144;49.920;18.730;2023-07-02T08:14:16;4.20;;;2.50;;
42514;SDS011;28144;49.920;18.730;2023-07-02T08:16:43;4.72;;;2.30;;
42514;SDS011;28144;49.920;18.730;2023-07-02T08:19:09;7.13;;;3.42;;
42514;SDS011;28144;49.920;18.730;2023-07-02T08:21:35;3.55;;;2.70;;
42514;SDS011;28144;49.920;18.730;2023-07-02T08:24:02;8.00;;;2.97;;
42514;SDS011;28144;49.920;18.730;2023-07-02T08:26:28;3.58;;;2.30;;
42514;SDS011;28144;49.920;18.730;2023-07-02T08:28:54;3.53;;;2.03;;
42514;SDS011;28144;49.920;18.730;2023-07-02T08:31:20;7.25;;;2.20;;
42514;SDS011;28144;49.920;18.730;2023-07-02T08:33:45;3.45;;;2.05;;
42514;SDS011;28144;49.920;18.730;2023-07-02T08:36:11;4.43;;;2.70;;
42514;SDS011;28144;49.920;18.730;2023-07-02T08:38:39;2.47;;;1.83;;
42514;SDS011;28144;49.920;18.730;2023-07-02T08:41:08;5.10;;;2.42;;
42514;SDS011;28144;49.920;18.730;2023-07-02T08:43:34;4.95;;;2.20;;
42514;SDS011;28144;49.920;18.730;2023-07-02T08:46:01;3.80;;;2.80;;
42514;SDS011;28144;49.920;18.730;2023-07-02T08:48:27;5.65;;;2.75;;
42514;SDS011;28144;49.920;18.730;2023-07-02T08:50:57;5.18;;;3.20;;
42514;SDS011;28144;49.920;18.730;2023-07-02T08:53:23;6.25;;;3.05;;
42514;SDS011;28144;49.920;18.730;2023-07-02T08:55:54;5.32;;;3.03;;
42514;SDS011;28144;49.920;18.730;2023-07-02T08:58:21;6.88;;;2.72;;
42514;SDS011;28144;49.920;18.730;2023-07-02T09:01:06;8.93;;;3.38;;
42514;SDS011;28144;49.920;18.730;2023-07-02T09:03:36;9.02;;;2.90;;
42514;SDS011;28144;49.920;18.730;2023-07-02T09:06:03;4.93;;;3.22;;
42514;SDS011;28144;49.920;18.730;2023-07-02T09:08:32;8.57;;;3.63;;
42514;SDS011;28144;49.920;18.730;2023-07-02T09:11:11;4.85;;;3.03;;
42514;SDS011;28144;49.920;18.730;2023-07-02T09:19:06;11.38;;;3.92;;
42514;SDS011;28144;49.920;18.730;2023-07-02T09:21:47;7.20;;;3.60;;
42514;SDS011;28144;49.920;18.730;2023-07-02T09:24:14;8.15;;;3.75;;
42514;SDS011;28144;49.920;18.730;2023-07-02T09:26:47;6.85;;;3.22;;
42514;SDS011;28144;49.920;18.730;2023-07-02T09:29:22;6.38;;;3.55;;
42514;SDS011;28144;49.920;18.730;2023-07-02T09:31:58;7.60;;;3.38;;
42514;SDS011;28144;49.920;18.730;2023-07-02T09:34:31;7.57;;;3.38;;
42514;SDS011;28144;49.920;18.730;2023-07-02T09:36:58;7.93;;;3.67;;
42514;SDS011;28144;49.920;18.730;2023-07-02T09:39:28;5.53;;;3.50;;
42514;SDS011;28144;49.920;18.730;2023-07-02T09:41:55;4.45;;;3.33;;
42514;SDS011;28144;49.920;18.730;2023-07-02T09:44:28;4.65;;;3.30;;
42514;SDS011;28144;49.920;18.730;2023-07-02T09:46:58;10.10;;;3.45;;
42514;SDS011;28144;49.920;18.730;2023-07-02T09:49:32;6.15;;;3.13;;
42514;SDS011;28144;49.920;18.730;2023-07-02T09:52:03;5.32;;;3.20;;
42514;SDS011;28144;49.920;18.730;2023-07-02T09:54:30;4.78;;;3.15;;
42514;SDS011;28144;49.920;18.730;2023-07-02T09:56:57;3.78;;;3.20;;
42514;SDS011;28144;49.920;18.730;2023-07-02T09:59:24;6.47;;;2.67;;
42514;SDS011;28144;49.920;18.730;2023-07-02T10:01:50;4.45;;;2.80;;
42514;SDS011;28144;49.920;18.730;2023-07-02T10:04:17;5.28;;;2.90;;
42514;SDS011;28144;49.920;18.730;2023-07-02T10:06:50;3.88;;;2.72;;
42514;SDS011;28144;49.920;18.730;2023-07-02T10:09:19;5.35;;;2.60;;
42514;SDS011;28144;49.920;18.730;2023-07-02T10:11:48;4.15;;;2.42;;
42514;SDS011;28144;49.920;18.730;2023-07-02T10:14:14;7.57;;;2.60;;
42514;SDS011;28144;49.920;18.730;2023-07-02T10:16:52;7.15;;;2.90;;
42514;SDS011;28144;49.920;18.730;2023-07-02T10:19:19;4.85;;;3.08;;
42514;SDS011;28144;49.920;18.730;2023-07-02T10:21:46;10.57;;;3.15;;
42514;SDS011;28144;49.920;18.730;2023-07-02T10:24:15;6.10;;;2.63;;
42514;SDS011;28144;49.920;18.730;2023-07-02T10:26:59;6.68;;;2.90;;
42514;SDS011;28144;49.920;18.730;2023-07-02T10:29:26;5.95;;;2.45;;
42514;SDS011;28144;49.920;18.730;2023-07-02T10:31:54;4.75;;;2.55;;
42514;SDS011;28144;49.920;18.730;2023-07-02T10:34:33;5.88;;;2.60;;
42514;SDS011;28144;49.920;18.730;2023-07-02T10:37:09;5.18;;;2.30;;
42514;SDS011;28144;49.920;18.730;2023-07-02T10:39:38;6.63;;;2.63;;
42514;SDS011;28144;49.920;18.730;2023-07-02T10:42:07;7.43;;;2.58;;
42514;SDS011;28144;49.920;18.730;2023-07-02T10:44:34;3.90;;;2.67;;
42514;SDS011;28144;49.920;18.730;2023-07-02T10:47:00;5.75;;;2.25;;
42514;SDS011;28144;49.920;18.730;2023-07-02T10:49:32;2.80;;;2.10;;
42514;SDS011;28144;49.920;18.730;2023-07-02T10:52:01;2.67;;;1.98;;
42514;SDS011;28144;49.920;18.730;2023-07-02T10:54:39;5.97;;;2.13;;
42514;SDS011;28144;49.920;18.730;2023-07-02T10:57:06;2.58;;;2.30;;
42514;SDS011;28144;49.920;18.730;2023-07-02T10:59:33;5.22;;;2.40;;
42514;SDS011;28144;49.920;18.730;2023-07-02T11:01:59;4.80;;;2.20;;
42514;SDS011;28144;49.920;18.730;2023-07-02T11:04:27;3.95;;;1.98;;
42514;SDS011;28144;49.920;18.730;2023-07-02T11:09:19;2.65;;;1.73;;
42514;SDS011;28144;49.920;18.730;2023-07-02T11:14:38;4.00;;;2.10;;
42514;SDS011;28144;49.920;18.730;2023-07-02T11:17:05;3.65;;;2.05;;
42514;SDS011;28144;49.920;18.730;2023-07-02T11:19:32;5.03;;;1.77;;
42514;SDS011;28144;49.920;18.730;2023-07-02T11:21:59;5.07;;;1.50;;
42514;SDS011;28144;49.920;18.730;2023-07-02T11:26:54;3.25;;;1.30;;
42514;SDS011;28144;49.920;18.730;2023-07-02T11:29:20;2.63;;;1.40;;
42514;SDS011;28144;49.920;18.730;2023-07-02T11:31:46;2.22;;;1.35;;
42514;SDS011;28144;49.920;18.730;2023-07-02T11:34:15;3.47;;;1.17;;
42514;SDS011;28144;49.920;18.730;2023-07-02T11:36:42;1.73;;;1.27;;
42514;SDS011;28144;49.920;18.730;2023-07-02T11:39:08;2.33;;;1.20;;
42514;SDS011;28144;49.920;18.730;2023-07-02T11:41:40;1.20;;;1.10;;
42514;SDS011;28144;49.920;18.730;2023-07-02T11:44:06;6.65;;;1.20;;
42514;SDS011;28144;49.920;18.730;2023-07-02T11:46:32;2.92;;;1.10;;
42514;SDS011;28144;49.920;18.730;2023-07-02T11:49:02;2.28;;;1.05;;
42514;SDS011;28144;49.920;18.730;2023-07-02T11:51:35;3.42;;;1.27;;
42514;SDS011;28144;49.920;18.730;2023-07-02T11:54:03;6.45;;;1.00;;
42514;SDS011;28144;49.920;18.730;2023-07-02T11:56:29;4.38;;;1.10;;
42514;SDS011;28144;49.920;18.730;2023-07-02T11:58:56;1.63;;;1.00;;
42514;SDS011;28144;49.920;18.730;2023-07-02T12:01:21;1.90;;;1.10;;
42514;SDS011;28144;49.920;18.730;2023-07-02T12:03:47;1.10;;;0.88;;
42514;SDS011;28144;49.920;18.730;2023-07-02T12:06:13;2.03;;;0.70;;
42514;SDS011;28144;49.920;18.730;2023-07-02T12:08:39;1.80;;;1.02;;
42514;SDS011;28144;49.920;18.730;2023-07-02T12:11:04;2.25;;;1.05;;
42514;SDS011;28144;49.920;18.730;2023-07-02T12:13:30;3.97;;;1.10;;
42514;SDS011;28144;49.920;18.730;2023-07-02T12:15:56;2.95;;;0.85;;
42514;SDS011;28144;49.920;18.730;2023-07-02T12:18:21;1.15;;;1.00;;
42514;SDS011;28144;49.920;18.730;2023-07-02T12:20:47;2.30;;;0.90;;
42514;SDS011;28144;49.920;18.730;2023-07-02T12:23:13;3.88;;;0.90;;
42514;SDS011;28144;49.920;18.730;2023-07-02T12:25:39;5.60;;;1.10;;
42514;SDS011;28144;49.920;18.730;2023-07-02T12:28:05;2.60;;;1.10;;
42514;SDS011;28144;49.920;18.730;2023-07-02T12:30:31;1.73;;;0.93;;
42514;SDS011;28144;49.920;18.730;2023-07-02T12:33:00;1.63;;;1.15;;
42514;SDS011;28144;49.920;18.730;2023-07-02T12:35:26;1.70;;;0.82;;
42514;SDS011;28144;49.920;18.730;2023-07-02T12:37:55;6.97;;;1.10;;
42514;SDS011;28144;49.920;18.730;2023-07-02T12:40:21;1.52;;;0.82;;
42514;SDS011;28144;49.920;18.730;2023-07-02T12:42:47;1.55;;;1.00;;
42514;SDS011;28144;49.920;18.730;2023-07-02T12:45:13;1.40;;;0.82;;
42514;SDS011;28144;49.920;18.730;2023-07-02T12:47:40;1.40;;;0.88;;
42514;SDS011;28144;49.920;18.730;2023-07-02T12:50:07;6.50;;;0.77;;
42514;SDS011;28144;49.920;18.730;2023-07-02T12:52:36;2.25;;;0.60;;
42514;SDS011;28144;49.920;18.730;2023-07-02T12:55:02;0.95;;;0.63;;
42514;SDS011;28144;49.920;18.730;2023-07-02T12:57:30;2.92;;;0.90;;
42514;SDS011;28144;49.920;18.730;2023-07-02T12:59:55;4.40;;;1.15;;
42514;SDS011;28144;49.920;18.730;2023-07-02T13:02:25;7.45;;;1.65;;
42514;SDS011;28144;49.920;18.730;2023-07-02T13:04:50;4.60;;;1.33;;
42514;SDS011;28144;49.920;18.730;2023-07-02T13:07:16;2.35;;;1.20;;
42514;SDS011;28144;49.920;18.730;2023-07-02T13:09:42;2.00;;;1.23;;
42514;SDS011;28144;49.920;18.730;2023-07-02T13:14:35;4.95;;;1.73;;
42514;SDS011;28144;49.920;18.730;2023-07-02T13:17:01;1.00;;;0.90;;
42514;SDS011;28144;49.920;18.730;2023-07-02T13:19:30;3.63;;;1.02;;
42514;SDS011;28144;49.920;18.730;2023-07-02T13:21:56;5.32;;;1.50;;
42514;SDS011;28144;49.920;18.730;2023-07-02T13:24:21;4.70;;;1.10;;
42514;SDS011;28144;49.920;18.730;2023-07-02T13:26:47;1.95;;;1.08;;
42514;SDS011;28144;49.920;18.730;2023-07-02T13:29:13;8.00;;;1.37;;
42514;SDS011;28144;49.920;18.730;2023-07-02T13:31:39;2.25;;;1.42;;
42514;SDS011;28144;49.920;18.730;2023-07-02T13:34:05;4.30;;;2.50;;
42514;SDS011;28144;49.920;18.730;2023-07-02T13:36:31;2.25;;;1.17;;
42514;SDS011;28144;49.920;18.730;2023-07-02T13:38:57;1.60;;;0.70;;
42514;SDS011;28144;49.920;18.730;2023-07-02T13:41:23;4.38;;;1.73;;
42514;SDS011;28144;49.920;18.730;2023-07-02T13:43:48;4.63;;;1.40;;
42514;SDS011;28144;49.920;18.730;2023-07-02T13:46:14;3.92;;;1.40;;
42514;SDS011;28144;49.920;18.730;2023-07-02T13:48:40;3.42;;;1.30;;
42514;SDS011;28144;49.920;18.730;2023-07-02T13:51:06;4.38;;;1.23;;
42514;SDS011;28144;49.920;18.730;2023-07-02T13:53:33;2.13;;;1.10;;
42514;SDS011;28144;49.920;18.730;2023-07-02T13:55:59;2.85;;;1.60;;
42514;SDS011;28144;49.920;18.730;2023-07-02T13:58:25;1.23;;;0.63;;
42514;SDS011;28144;49.920;18.730;2023-07-02T14:00:51;1.33;;;1.00;;
42514;SDS011;28144;49.920;18.730;2023-07-02T14:03:17;1.77;;;0.90;;
42514;SDS011;28144;49.920;18.730;2023-07-02T14:05:43;2.03;;;0.95;;
42514;SDS011;28144;49.920;18.730;2023-07-02T14:08:08;6.22;;;0.85;;
42514;SDS011;28144;49.920;18.730;2023-07-02T14:10:36;4.88;;;1.20;;
42514;SDS011;28144;49.920;18.730;2023-07-02T14:13:01;1.33;;;0.77;;
42514;SDS011;28144;49.920;18.730;2023-07-02T14:15:27;2.45;;;1.17;;
42514;SDS011;28144;49.920;18.730;2023-07-02T14:17:53;8.35;;;1.02;;
42514;SDS011;28144;49.920;18.730;2023-07-02T14:20:20;4.82;;;0.80;;
42514;SDS011;28144;49.920;18.730;2023-07-02T14:22:46;1.80;;;1.10;;
42514;SDS011;28144;49.920;18.730;2023-07-02T14:25:12;2.15;;;1.00;;
42514;SDS011;28144;49.920;18.730;2023-07-02T14:27:37;3.07;;;0.90;;
42514;SDS011;28144;49.920;18.730;2023-07-02T14:30:04;2.30;;;0.85;;
42514;SDS011;28144;49.920;18.730;2023-07-02T14:32:33;2.22;;;0.77;;
42514;SDS011;28144;49.920;18.730;2023-07-02T14:35:01;1.67;;;0.98;;
42514;SDS011;28144;49.920;18.730;2023-07-02T14:37:27;1.30;;;1.20;;
42514;SDS011;28144;49.920;18.730;2023-07-02T14:39:53;3.78;;;1.10;;
42514;SDS011;28144;49.920;18.730;2023-07-02T14:42:19;2.40;;;1.20;;
42514;SDS011;28144;49.920;18.730;2023-07-02T14:44:45;2.17;;;1.20;;
42514;SDS011;28144;49.920;18.730;2023-07-02T14:47:10;1.80;;;1.10;;
42514;SDS011;28144;49.920;18.730;2023-07-02T14:49:36;2.78;;;1.60;;
42514;SDS011;28144;49.920;18.730;2023-07-02T14:52:02;4.05;;;1.38;;
42514;SDS011;28144;49.920;18.730;2023-07-02T14:54:28;1.52;;;1.08;;
42514;SDS011;28144;49.920;18.730;2023-07-02T14:56:54;2.15;;;1.05;;
42514;SDS011;28144;49.920;18.730;2023-07-02T14:59:20;1.83;;;1.13;;
42514;SDS011;28144;49.920;18.730;2023-07-02T15:01:45;6.72;;;3.80;;
42514;SDS011;28144;49.920;18.730;2023-07-02T15:04:11;3.28;;;1.48;;
42514;SDS011;28144;49.920;18.730;2023-07-02T15:06:37;1.52;;;1.17;;